sensor_id;sensor_type;location;lat;lon;timestamp;P1;durP1;ratioP1;P2;durP2;ratioP2
58681;SDS011;44460;40.162;18.294;2023-03-31T00:00:31;11.27;;;3.63;;
58681;SDS011;44460;40.162;18.294;2023-03-31T00:02:56;9.80;;;4.32;;
58681;SDS011;44460;40.162;18.294;2023-03-31T00:05:23;9.48;;;3.22;;
58681;SDS011;44460;40.162;18.294;2023-03-31T00:07:57;10.88;;;3.30;;
58681;SDS011;44460;40.162;18.294;2023-03-31T00:10:26;11.82;;;3.55;;
58681;SDS011;44460;40.162;18.294;2023-03-31T00:12:52;13.15;;;3.75;;
58681;SDS011;44460;40.162;18.294;2023-03-31T00:15:17;10.68;;;3.72;;
58681;SDS011;44460;40.162;18.294;2023-03-31T00:17:43;9.27;;;3.33;;
58681;SDS011;44460;40.162;18.294;2023-03-31T00:20:08;9.40;;;3.30;;
58681;SDS011;44460;40.162;18.294;2023-03-31T00:22:36;11.32;;;4.82;;
58681;SDS011;44460;40.162;18.294;2023-03-31T00:25:03;10.30;;;2.97;;
58681;SDS011;44460;40.162;18.294;2023-03-31T00:27:28;13.32;;;3.30;;
58681;SDS011;44460;40.162;18.294;2023-03-31T00:29:54;11.68;;;4.18;;
58681;SDS011;44460;40.162;18.294;2023-03-31T00:32:19;11.82;;;3.50;;
58681;SDS011;44460;40.162;18.294;2023-03-31T00:34:45;15.10;;;3.38;;
58681;SDS011;44460;40.162;18.294;2023-03-31T00:37:10;9.85;;;3.22;;
58681;SDS011;44460;40.162;18.294;2023-03-31T00:39:40;8.70;;;3.13;;
58681;SDS011;44460;40.162;18.294;2023-03-31T00:42:08;10.88;;;3.67;;
58681;SDS011;44460;40.162;18.294;2023-03-31T00:44:38;13.15;;;3.30;;
58681;SDS011;44460;40.162;18.294;2023-03-31T00:47:22;11.07;;;3.67;;
58681;SDS011;44460;40.162;18.294;2023-03-31T00:49:52;13.23;;;3.72;;
58681;SDS011;44460;40.162;18.294;2023-03-31T00:52:20;14.18;;;3.75;;
58681;SDS011;44460;40.162;18.294;2023-03-31T00:57:12;13.30;;;3.80;;
58681;SDS011;44460;40.162;18.294;2023-03-31T00:59:39;15.05;;;4.22;;
58681;SDS011;44460;40.162;18.294;2023-03-31T01:04:33;12.05;;;3.60;;
58681;SDS011;44460;40.162;18.294;2023-03-31T01:09:52;7.97;;;2.88;;
58681;SDS011;44460;40.162;18.294;2023-03-31T01:12:21;17.17;;;3.40;;
58681;SDS011;44460;40.162;18.294;2023-03-31T01:14:47;9.90;;;3.30;;
58681;SDS011;44460;40.162;18.294;2023-03-31T01:17:14;18.73;;;3.58;;
58681;SDS011;44460;40.162;18.294;2023-03-31T01:27:25;14.52;;;3.78;;
58681;SDS011;44460;40.162;18.294;2023-03-31T01:30:06;17.42;;;4.05;;
58681;SDS011;44460;40.162;18.294;2023-03-31T01:43:47;13.20;;;3.88;;
58681;SDS011;44460;40.162;18.294;2023-03-31T01:56:45;20.73;;;5.15;;
58681;SDS011;44460;40.162;18.294;2023-03-31T01:59:16;12.23;;;4.40;;
58681;SDS011;44460;40.162;18.294;2023-03-31T02:01:53;16.90;;;4.65;;
58681;SDS011;44460;40.162;18.294;2023-03-31T02:05:04;20.48;;;4.97;;
58681;SDS011;44460;40.162;18.294;2023-03-31T02:07:19;20.02;;;4.60;;
58681;SDS011;44460;40.162;18.294;2023-03-31T02:09:49;16.10;;;4.78;;
58681;SDS011;44460;40.162;18.294;2023-03-31T02:12:16;20.08;;;4.68;;
58681;SDS011;44460;40.162;18.294;2023-03-31T02:14:43;19.35;;;4.40;;
58681;SDS011;44460;40.162;18.294;2023-03-31T02:17:12;17.10;;;4.87;;
58681;SDS011;44460;40.162;18.294;2023-03-31T02:19:43;12.38;;;3.70;;
58681;SDS011;44460;40.162;18.294;2023-03-31T02:22:09;18.48;;;5.57;;
58681;SDS011;44460;40.162;18.294;2023-03-31T02:24:36;24.52;;;4.95;;
58681;SDS011;44460;40.162;18.294;2023-03-31T02:29:30;22.73;;;4.90;;
58681;SDS011;44460;40.162;18.294;2023-03-31T02:31:57;15.65;;;4.60;;
58681;SDS011;44460;40.162;18.294;2023-03-31T02:34:25;20.25;;;4.90;;
58681;SDS011;44460;40.162;18.294;2023-03-31T02:36:50;16.90;;;4.45;;
58681;SDS011;44460;40.162;18.294;2023-03-31T02:39:17;16.50;;;4.47;;
58681;SDS011;44460;40.162;18.294;2023-03-31T02:41:44;21.65;;;5.30;;
58681;SDS011;44460;40.162;18.294;2023-03-31T02:44:10;14.20;;;4.97;;
58681;SDS011;44460;40.162;18.294;2023-03-31T02:46:36;13.18;;;3.90;;
58681;SDS011;44460;40.162;18.294;2023-03-31T02:49:03;24.00;;;5.10;;
58681;SDS011;44460;40.162;18.294;2023-03-31T03:09:33;22.35;;;4.25;;
58681;SDS011;44460;40.162;18.294;2023-03-31T03:17:11;18.13;;;4.80;;
58681;SDS011;44460;40.162;18.294;2023-03-31T03:19:38;24.98;;;4.57;;
58681;SDS011;44460;40.162;18.294;2023-03-31T03:22:05;15.68;;;4.22;;
58681;SDS011;44460;40.162;18.294;2023-03-31T03:24:30;16.73;;;4.80;;
58681;SDS011;44460;40.162;18.294;2023-03-31T03:26:58;17.35;;;4.68;;
58681;SDS011;44460;40.162;18.294;2023-03-31T03:29:24;19.73;;;4.18;;
58681;SDS011;44460;40.162;18.294;2023-03-31T03:31:51;22.25;;;4.38;;
58681;SDS011;44460;40.162;18.294;2023-03-31T03:34:16;29.00;;;5.47;;
58681;SDS011;44460;40.162;18.294;2023-03-31T03:36:43;19.75;;;4.38;;
58681;SDS011;44460;40.162;18.294;2023-03-31T03:39:08;16.30;;;3.53;;
58681;SDS011;44460;40.162;18.294;2023-03-31T03:41:33;27.92;;;5.55;;
58681;SDS011;44460;40.162;18.294;2023-03-31T03:43:59;22.02;;;3.95;;
58681;SDS011;44460;40.162;18.294;2023-03-31T03:46:25;23.45;;;5.22;;
58681;SDS011;44460;40.162;18.294;2023-03-31T03:48:50;22.08;;;4.70;;
58681;SDS011;44460;40.162;18.294;2023-03-31T03:51:16;18.70;;;4.00;;
58681;SDS011;44460;40.162;18.294;2023-03-31T03:53:41;21.98;;;4.75;;
58681;SDS011;44460;40.162;18.294;2023-03-31T03:56:07;23.25;;;5.50;;
58681;SDS011;44460;40.162;18.294;2023-03-31T03:58:32;24.13;;;5.60;;
58681;SDS011;44460;40.162;18.294;2023-03-31T04:00:57;28.08;;;5.38;;
58681;SDS011;44460;40.162;18.294;2023-03-31T04:03:23;25.38;;;4.50;;
58681;SDS011;44460;40.162;18.294;2023-03-31T04:05:48;14.10;;;4.05;;
58681;SDS011;44460;40.162;18.294;2023-03-31T04:08:14;16.48;;;4.45;;
58681;SDS011;44460;40.162;18.294;2023-03-31T04:10:45;21.65;;;5.30;;
58681;SDS011;44460;40.162;18.294;2023-03-31T04:13:13;17.60;;;4.13;;
58681;SDS011;44460;40.162;18.294;2023-03-31T04:15:39;25.27;;;4.45;;
58681;SDS011;44460;40.162;18.294;2023-03-31T04:18:04;21.85;;;4.95;;
58681;SDS011;44460;40.162;18.294;2023-03-31T04:20:29;17.92;;;4.22;;
58681;SDS011;44460;40.162;18.294;2023-03-31T04:22:56;19.80;;;4.53;;
58681;SDS011;44460;40.162;18.294;2023-03-31T04:25:21;17.65;;;3.90;;
58681;SDS011;44460;40.162;18.294;2023-03-31T04:27:50;16.27;;;5.10;;
58681;SDS011;44460;40.162;18.294;2023-03-31T04:30:25;16.88;;;4.00;;
58681;SDS011;44460;40.162;18.294;2023-03-31T04:32:56;14.95;;;3.97;;
58681;SDS011;44460;40.162;18.294;2023-03-31T04:35:22;22.50;;;4.10;;
58681;SDS011;44460;40.162;18.294;2023-03-31T04:37:48;18.58;;;4.50;;
58681;SDS011;44460;40.162;18.294;2023-03-31T04:40:13;25.25;;;4.60;;
58681;SDS011;44460;40.162;18.294;2023-03-31T04:42:40;26.48;;;5.70;;
58681;SDS011;44460;40.162;18.294;2023-03-31T04:45:06;27.83;;;4.53;;
58681;SDS011;44460;40.162;18.294;2023-03-31T04:47:34;13.07;;;3.83;;
58681;SDS011;44460;40.162;18.294;2023-03-31T04:50:02;20.15;;;4.05;;
58681;SDS011;44460;40.162;18.294;2023-03-31T04:52:28;20.08;;;4.57;;
58681;SDS011;44460;40.162;18.294;2023-03-31T04:54:53;22.13;;;4.78;;
58681;SDS011;44460;40.162;18.294;2023-03-31T04:57:19;15.75;;;4.55;;
58681;SDS011;44460;40.162;18.294;2023-03-31T04:59:45;20.15;;;5.28;;
58681;SDS011;44460;40.162;18.294;2023-03-31T05:02:11;19.50;;;4.30;;
58681;SDS011;44460;40.162;18.294;2023-03-31T05:04:36;29.88;;;5.35;;
58681;SDS011;44460;40.162;18.294;2023-03-31T05:07:02;20.95;;;4.20;;
58681;SDS011;44460;40.162;18.294;2023-03-31T05:09:27;24.00;;;4.32;;
58681;SDS011;44460;40.162;18.294;2023-03-31T05:11:52;15.60;;;4.32;;
58681;SDS011;44460;40.162;18.294;2023-03-31T05:14:18;23.20;;;4.18;;
58681;SDS011;44460;40.162;18.294;2023-03-31T05:16:43;19.73;;;4.20;;
58681;SDS011;44460;40.162;18.294;2023-03-31T05:19:09;23.20;;;4.95;;
58681;SDS011;44460;40.162;18.294;2023-03-31T05:21:36;29.48;;;4.32;;
58681;SDS011;44460;40.162;18.294;2023-03-31T05:24:04;21.30;;;4.70;;
58681;SDS011;44460;40.162;18.294;2023-03-31T05:26:30;35.20;;;4.40;;
58681;SDS011;44460;40.162;18.294;2023-03-31T05:28:56;23.05;;;4.15;;
58681;SDS011;44460;40.162;18.294;2023-03-31T05:31:21;25.17;;;4.63;;
58681;SDS011;44460;40.162;18.294;2023-03-31T05:33:47;20.77;;;3.38;;
58681;SDS011;44460;40.162;18.294;2023-03-31T05:36:13;25.27;;;4.78;;
58681;SDS011;44460;40.162;18.294;2023-03-31T05:38:39;22.73;;;4.10;;
58681;SDS011;44460;40.162;18.294;2023-03-31T05:41:05;32.30;;;4.75;;
58681;SDS011;44460;40.162;18.294;2023-03-31T05:43:32;21.67;;;4.68;;
58681;SDS011;44460;40.162;18.294;2023-03-31T05:45:57;25.27;;;4.10;;
58681;SDS011;44460;40.162;18.294;2023-03-31T05:48:23;18.33;;;3.92;;
58681;SDS011;44460;40.162;18.294;2023-03-31T05:50:48;23.88;;;4.13;;
58681;SDS011;44460;40.162;18.294;2023-03-31T05:53:14;19.67;;;3.50;;
58681;SDS011;44460;40.162;18.294;2023-03-31T05:55:40;26.60;;;5.18;;
58681;SDS011;44460;40.162;18.294;2023-03-31T05:58:05;28.83;;;4.93;;
58681;SDS011;44460;40.162;18.294;2023-03-31T06:00:31;26.42;;;4.22;;
58681;SDS011;44460;40.162;18.294;2023-03-31T06:02:57;21.58;;;3.58;;
58681;SDS011;44460;40.162;18.294;2023-03-31T06:05:23;19.13;;;3.50;;
58681;SDS011;44460;40.162;18.294;2023-03-31T06:10:16;26.58;;;3.92;;
58681;SDS011;44460;40.162;18.294;2023-03-31T06:12:41;24.55;;;4.43;;
58681;SDS011;44460;40.162;18.294;2023-03-31T06:15:07;17.05;;;3.35;;
58681;SDS011;44460;40.162;18.294;2023-03-31T06:17:32;23.83;;;3.88;;
58681;SDS011;44460;40.162;18.294;2023-03-31T06:19:58;24.92;;;3.78;;
58681;SDS011;44460;40.162;18.294;2023-03-31T06:22:23;22.33;;;4.63;;
58681;SDS011;44460;40.162;18.294;2023-03-31T06:24:49;19.58;;;3.60;;
58681;SDS011;44460;40.162;18.294;2023-03-31T06:27:14;30.58;;;3.90;;
58681;SDS011;44460;40.162;18.294;2023-03-31T06:29:39;25.92;;;4.15;;
58681;SDS011;44460;40.162;18.294;2023-03-31T06:32:05;22.08;;;4.35;;
58681;SDS011;44460;40.162;18.294;2023-03-31T06:34:30;23.65;;;5.22;;
58681;SDS011;44460;40.162;18.294;2023-03-31T06:36:56;26.33;;;4.30;;
58681;SDS011;44460;40.162;18.294;2023-03-31T06:39:21;16.15;;;3.67;;
58681;SDS011;44460;40.162;18.294;2023-03-31T06:41:46;20.17;;;3.70;;
58681;SDS011;44460;40.162;18.294;2023-03-31T06:44:20;25.20;;;4.93;;
58681;SDS011;44460;40.162;18.294;2023-03-31T06:46:47;20.13;;;3.25;;
58681;SDS011;44460;40.162;18.294;2023-03-31T06:49:13;17.75;;;3.22;;
58681;SDS011;44460;40.162;18.294;2023-03-31T06:51:38;22.10;;;4.55;;
58681;SDS011;44460;40.162;18.294;2023-03-31T06:54:03;23.63;;;3.45;;
58681;SDS011;44460;40.162;18.294;2023-03-31T06:56:29;21.35;;;3.78;;
58681;SDS011;44460;40.162;18.294;2023-03-31T06:58:55;30.75;;;3.80;;
58681;SDS011;44460;40.162;18.294;2023-03-31T07:01:21;30.95;;;4.38;;
58681;SDS011;44460;40.162;18.294;2023-03-31T07:03:46;22.30;;;3.72;;
58681;SDS011;44460;40.162;18.294;2023-03-31T07:06:11;19.88;;;4.65;;
58681;SDS011;44460;40.162;18.294;2023-03-31T07:08:37;23.95;;;3.45;;
58681;SDS011;44460;40.162;18.294;2023-03-31T07:11:03;19.95;;;3.88;;
58681;SDS011;44460;40.162;18.294;2023-03-31T07:13:28;22.25;;;3.63;;
58681;SDS011;44460;40.162;18.294;2023-03-31T07:15:54;15.73;;;3.20;;
58681;SDS011;44460;40.162;18.294;2023-03-31T07:18:20;21.52;;;3.40;;
58681;SDS011;44460;40.162;18.294;2023-03-31T07:20:50;28.38;;;4.20;;
58681;SDS011;44460;40.162;18.294;2023-03-31T07:23:16;23.90;;;4.63;;
58681;SDS011;44460;40.162;18.294;2023-03-31T07:25:41;22.95;;;3.17;;
58681;SDS011;44460;40.162;18.294;2023-03-31T07:28:08;22.60;;;3.90;;
58681;SDS011;44460;40.162;18.294;2023-03-31T07:30:33;19.98;;;3.08;;
58681;SDS011;44460;40.162;18.294;2023-03-31T07:32:59;26.30;;;3.92;;
58681;SDS011;44460;40.162;18.294;2023-03-31T07:35:25;21.63;;;3.88;;
58681;SDS011;44460;40.162;18.294;2023-03-31T07:37:50;27.83;;;4.75;;
58681;SDS011;44460;40.162;18.294;2023-03-31T07:40:20;22.08;;;4.10;;
58681;SDS011;44460;40.162;18.294;2023-03-31T07:42:46;20.48;;;3.60;;
58681;SDS011;44460;40.162;18.294;2023-03-31T07:45:13;20.90;;;3.42;;
58681;SDS011;44460;40.162;18.294;2023-03-31T07:47:39;22.02;;;3.97;;
58681;SDS011;44460;40.162;18.294;2023-03-31T07:50:05;17.85;;;4.75;;
58681;SDS011;44460;40.162;18.294;2023-03-31T07:52:30;20.05;;;3.17;;
58681;SDS011;44460;40.162;18.294;2023-03-31T07:54:55;28.55;;;5.30;;
58681;SDS011;44460;40.162;18.294;2023-03-31T07:57:21;18.85;;;3.53;;
58681;SDS011;44460;40.162;18.294;2023-03-31T07:59:46;24.52;;;3.75;;
58681;SDS011;44460;40.162;18.294;2023-03-31T08:02:12;22.27;;;3.97;;
58681;SDS011;44460;40.162;18.294;2023-03-31T08:04:38;20.85;;;4.40;;
58681;SDS011;44460;40.162;18.294;2023-03-31T08:09:31;16.38;;;3.75;;
58681;SDS011;44460;40.162;18.294;2023-03-31T08:11:56;21.02;;;3.70;;
58681;SDS011;44460;40.162;18.294;2023-03-31T08:14:22;28.20;;;4.30;;
58681;SDS011;44460;40.162;18.294;2023-03-31T08:16:47;22.38;;;4.10;;
58681;SDS011;44460;40.162;18.294;2023-03-31T08:19:13;22.33;;;3.53;;
58681;SDS011;44460;40.162;18.294;2023-03-31T08:21:38;20.77;;;3.53;;
58681;SDS011;44460;40.162;18.294;2023-03-31T08:24:03;22.63;;;3.80;;
58681;SDS011;44460;40.162;18.294;2023-03-31T08:26:30;18.90;;;4.07;;
58681;SDS011;44460;40.162;18.294;2023-03-31T08:28:57;21.75;;;4.68;;
58681;SDS011;44460;40.162;18.294;2023-03-31T08:31:23;27.92;;;4.40;;
58681;SDS011;44460;40.162;18.294;2023-03-31T08:33:48;22.05;;;3.70;;
58681;SDS011;44460;40.162;18.294;2023-03-31T08:36:14;24.45;;;4.50;;
58681;SDS011;44460;40.162;18.294;2023-03-31T08:38:40;19.08;;;3.45;;
58681;SDS011;44460;40.162;18.294;2023-03-31T08:43:58;21.00;;;3.72;;
58681;SDS011;44460;40.162;18.294;2023-03-31T08:46:24;20.27;;;3.63;;
58681;SDS011;44460;40.162;18.294;2023-03-31T08:48:55;23.10;;;4.18;;
58681;SDS011;44460;40.162;18.294;2023-03-31T08:51:22;22.13;;;3.33;;
58681;SDS011;44460;40.162;18.294;2023-03-31T08:53:51;21.88;;;4.28;;
58681;SDS011;44460;40.162;18.294;2023-03-31T08:56:20;23.45;;;3.35;;
58681;SDS011;44460;40.162;18.294;2023-03-31T08:58:47;21.98;;;4.20;;
58681;SDS011;44460;40.162;18.294;2023-03-31T09:01:29;23.70;;;4.65;;
58681;SDS011;44460;40.162;18.294;2023-03-31T09:06:42;19.77;;;4.57;;
58681;SDS011;44460;40.162;18.294;2023-03-31T09:12:46;22.25;;;4.80;;
58681;SDS011;44460;40.162;18.294;2023-03-31T09:15:01;28.00;;;6.38;;
58681;SDS011;44460;40.162;18.294;2023-03-31T09:17:30;30.33;;;4.35;;
58681;SDS011;44460;40.162;18.294;2023-03-31T09:22:34;19.58;;;3.35;;
58681;SDS011;44460;40.162;18.294;2023-03-31T09:25:05;17.60;;;3.90;;
58681;SDS011;44460;40.162;18.294;2023-03-31T09:27:36;24.65;;;4.28;;
58681;SDS011;44460;40.162;18.294;2023-03-31T09:32:34;24.23;;;5.13;;
58681;SDS011;44460;40.162;18.294;2023-03-31T09:35:12;21.33;;;4.10;;
58681;SDS011;44460;40.162;18.294;2023-03-31T09:37:38;23.27;;;4.38;;
58681;SDS011;44460;40.162;18.294;2023-03-31T09:40:04;21.48;;;4.18;;
58681;SDS011;44460;40.162;18.294;2023-03-31T09:42:32;24.80;;;3.70;;
58681;SDS011;44460;40.162;18.294;2023-03-31T09:44:58;22.35;;;4.45;;
58681;SDS011;44460;40.162;18.294;2023-03-31T09:47:36;20.47;;;3.97;;
58681;SDS011;44460;40.162;18.294;2023-03-31T09:50:07;20.50;;;4.05;;
58681;SDS011;44460;40.162;18.294;2023-03-31T09:52:37;21.60;;;4.70;;
58681;SDS011;44460;40.162;18.294;2023-03-31T09:57:56;30.00;;;4.07;;
58681;SDS011;44460;40.162;18.294;2023-03-31T10:02:53;22.35;;;5.05;;
58681;SDS011;44460;40.162;18.294;2023-03-31T10:05:21;22.30;;;4.00;;
58681;SDS011;44460;40.162;18.294;2023-03-31T10:07:48;18.92;;;3.33;;
58681;SDS011;44460;40.162;18.294;2023-03-31T10:10:27;30.65;;;5.35;;
58681;SDS011;44460;40.162;18.294;2023-03-31T10:12:55;22.58;;;4.03;;
58681;SDS011;44460;40.162;18.294;2023-03-31T10:15:25;24.25;;;4.22;;
58681;SDS011;44460;40.162;18.294;2023-03-31T10:17:50;18.30;;;3.83;;
58681;SDS011;44460;40.162;18.294;2023-03-31T10:20:21;24.85;;;4.63;;
58681;SDS011;44460;40.162;18.294;2023-03-31T10:22:52;19.50;;;4.70;;
58681;SDS011;44460;40.162;18.294;2023-03-31T10:25:21;19.85;;;3.67;;
58681;SDS011;44460;40.162;18.294;2023-03-31T10:27:50;24.63;;;5.22;;
58681;SDS011;44460;40.162;18.294;2023-03-31T10:30:20;22.30;;;3.78;;
58681;SDS011;44460;40.162;18.294;2023-03-31T10:32:46;17.95;;;4.30;;
58681;SDS011;44460;40.162;18.294;2023-03-31T10:35:21;31.75;;;4.78;;
58681;SDS011;44460;40.162;18.294;2023-03-31T10:37:49;31.92;;;4.07;;
58681;SDS011;44460;40.162;18.294;2023-03-31T10:40:23;22.52;;;3.35;;
58681;SDS011;44460;40.162;18.294;2023-03-31T10:42:56;31.55;;;4.40;;
58681;SDS011;44460;40.162;18.294;2023-03-31T10:47:48;16.30;;;3.60;;
58681;SDS011;44460;40.162;18.294;2023-03-31T10:50:14;23.20;;;4.80;;
58681;SDS011;44460;40.162;18.294;2023-03-31T10:52:46;22.27;;;4.20;;
58681;SDS011;44460;40.162;18.294;2023-03-31T10:55:13;22.63;;;4.00;;
58681;SDS011;44460;40.162;18.294;2023-03-31T10:57:57;22.88;;;3.92;;
58681;SDS011;44460;40.162;18.294;2023-03-31T11:00:27;16.05;;;4.30;;
58681;SDS011;44460;40.162;18.294;2023-03-31T11:05:34;22.42;;;3.70;;
58681;SDS011;44460;40.162;18.294;2023-03-31T11:08:22;23.48;;;4.20;;
58681;SDS011;44460;40.162;18.294;2023-03-31T11:18:31;24.60;;;3.97;;
58681;SDS011;44460;40.162;18.294;2023-03-31T11:23:39;18.52;;;4.18;;
58681;SDS011;44460;40.162;18.294;2023-03-31T11:26:13;15.57;;;3.50;;
58681;SDS011;44460;40.162;18.294;2023-03-31T11:41:37;13.38;;;3.50;;
58681;SDS011;44460;40.162;18.294;2023-03-31T11:44:12;23.30;;;4.60;;
58681;SDS011;44460;40.162;18.294;2023-03-31T11:46:55;12.52;;;3.20;;
58681;SDS011;44460;40.162;18.294;2023-03-31T11:49:27;13.68;;;3.42;;
58681;SDS011;44460;40.162;18.294;2023-03-31T11:51:54;18.13;;;4.25;;
58681;SDS011;44460;40.162;18.294;2023-03-31T11:56:55;19.80;;;3.70;;
58681;SDS011;44460;40.162;18.294;2023-03-31T11:59:21;20.02;;;4.05;;
58681;SDS011;44460;40.162;18.294;2023-03-31T12:01:57;27.08;;;4.43;;
58681;SDS011;44460;40.162;18.294;2023-03-31T12:06:51;19.77;;;4.20;;
58681;SDS011;44460;40.162;18.294;2023-03-31T12:12:14;24.23;;;4.95;;
58681;SDS011;44460;40.162;18.294;2023-03-31T12:14:52;18.30;;;4.25;;
58681;SDS011;44460;40.162;18.294;2023-03-31T12:17:20;15.73;;;3.83;;
58681;SDS011;44460;40.162;18.294;2023-03-31T12:22:21;21.70;;;4.82;;
58681;SDS011;44460;40.162;18.294;2023-03-31T12:24:48;22.15;;;3.95;;
58681;SDS011;44460;40.162;18.294;2023-03-31T12:27:26;17.02;;;3.72;;
58681;SDS011;44460;40.162;18.294;2023-03-31T12:29:56;18.77;;;3.60;;
58681;SDS011;44460;40.162;18.294;2023-03-31T12:32:24;20.33;;;3.72;;
58681;SDS011;44460;40.162;18.294;2023-03-31T12:35:03;17.10;;;3.97;;
58681;SDS011;44460;40.162;18.294;2023-03-31T12:47:43;25.20;;;3.95;;
58681;SDS011;44460;40.162;18.294;2023-03-31T12:50:25;18.65;;;4.32;;
58681;SDS011;44460;40.162;18.294;2023-03-31T12:52:59;15.63;;;3.80;;
58681;SDS011;44460;40.162;18.294;2023-03-31T13:01:05;17.48;;;3.70;;
58681;SDS011;44460;40.162;18.294;2023-03-31T13:08:57;22.35;;;3.97;;
58681;SDS011;44460;40.162;18.294;2023-03-31T13:16:52;23.95;;;4.82;;
58681;SDS011;44460;40.162;18.294;2023-03-31T13:19:29;25.08;;;4.28;;
58681;SDS011;44460;40.162;18.294;2023-03-31T13:21:56;20.35;;;4.28;;
58681;SDS011;44460;40.162;18.294;2023-03-31T13:24:22;19.27;;;4.82;;
58681;SDS011;44460;40.162;18.294;2023-03-31T13:26:49;19.02;;;3.88;;
58681;SDS011;44460;40.162;18.294;2023-03-31T13:34:27;21.10;;;3.72;;
58681;SDS011;44460;40.162;18.294;2023-03-31T13:44:42;17.33;;;4.18;;
58681;SDS011;44460;40.162;18.294;2023-03-31T13:53:02;23.90;;;4.60;;
58681;SDS011;44460;40.162;18.294;2023-03-31T14:00:55;24.50;;;5.18;;
58681;SDS011;44460;40.162;18.294;2023-03-31T14:08:49;30.50;;;5.17;;
58681;SDS011;44460;40.162;18.294;2023-03-31T14:11:24;26.65;;;4.20;;
58681;SDS011;44460;40.162;18.294;2023-03-31T14:16:26;31.25;;;6.65;;
58681;SDS011;44460;40.162;18.294;2023-03-31T14:18:52;25.70;;;4.38;;
58681;SDS011;44460;40.162;18.294;2023-03-31T14:21:31;23.40;;;5.28;;
58681;SDS011;44460;40.162;18.294;2023-03-31T14:31:36;23.63;;;5.05;;
58681;SDS011;44460;40.162;18.294;2023-03-31T14:39:13;27.95;;;6.25;;
58681;SDS011;44460;40.162;18.294;2023-03-31T14:41:40;25.83;;;4.38;;
58681;SDS011;44460;40.162;18.294;2023-03-31T14:46:37;22.20;;;4.07;;
58681;SDS011;44460;40.162;18.294;2023-03-31T14:49:20;25.67;;;5.07;;
58681;SDS011;44460;40.162;18.294;2023-03-31T14:51:46;22.67;;;4.47;;
58681;SDS011;44460;40.162;18.294;2023-03-31T14:54:17;25.13;;;5.00;;
58681;SDS011;44460;40.162;18.294;2023-03-31T14:56:42;20.95;;;5.68;;
58681;SDS011;44460;40.162;18.294;2023-03-31T14:59:11;31.47;;;7.27;;
58681;SDS011;44460;40.162;18.294;2023-03-31T15:01:38;16.85;;;3.88;;
58681;SDS011;44460;40.162;18.294;2023-03-31T15:04:09;28.00;;;5.85;;
58681;SDS011;44460;40.162;18.294;2023-03-31T15:06:36;28.05;;;6.60;;
58681;SDS011;44460;40.162;18.294;2023-03-31T15:09:04;29.17;;;7.22;;
58681;SDS011;44460;40.162;18.294;2023-03-31T15:11:30;30.15;;;6.40;;
58681;SDS011;44460;40.162;18.294;2023-03-31T15:14:02;27.33;;;5.75;;
58681;SDS011;44460;40.162;18.294;2023-03-31T15:18:54;30.02;;;5.20;;
58681;SDS011;44460;40.162;18.294;2023-03-31T15:21:20;36.58;;;7.22;;
58681;SDS011;44460;40.162;18.294;2023-03-31T15:23:46;43.17;;;7.35;;
58681;SDS011;44460;40.162;18.294;2023-03-31T15:26:16;34.88;;;6.28;;
58681;SDS011;44460;40.162;18.294;2023-03-31T15:28:50;30.42;;;6.25;;
58681;SDS011;44460;40.162;18.294;2023-03-31T15:31:17;29.42;;;5.30;;
58681;SDS011;44460;40.162;18.294;2023-03-31T15:33:43;24.90;;;5.15;;
58681;SDS011;44460;40.162;18.294;2023-03-31T15:36:11;37.20;;;6.38;;
58681;SDS011;44460;40.162;18.294;2023-03-31T15:38:37;24.90;;;4.75;;
58681;SDS011;44460;40.162;18.294;2023-03-31T15:41:03;25.02;;;5.15;;
58681;SDS011;44460;40.162;18.294;2023-03-31T15:43:48;30.65;;;5.85;;
58681;SDS011;44460;40.162;18.294;2023-03-31T15:46:18;37.95;;;5.85;;
58681;SDS011;44460;40.162;18.294;2023-03-31T15:48:51;36.28;;;5.65;;
58681;SDS011;44460;40.162;18.294;2023-03-31T15:51:19;33.72;;;6.15;;
58681;SDS011;44460;40.162;18.294;2023-03-31T15:53:49;41.38;;;8.02;;
58681;SDS011;44460;40.162;18.294;2023-03-31T15:58:58;31.38;;;5.82;;
58681;SDS011;44460;40.162;18.294;2023-03-31T16:01:26;30.88;;;6.05;;
58681;SDS011;44460;40.162;18.294;2023-03-31T16:03:55;39.05;;;6.85;;
58681;SDS011;44460;40.162;18.294;2023-03-31T16:06:40;38.80;;;8.07;;
58681;SDS011;44460;40.162;18.294;2023-03-31T16:09:15;34.60;;;6.15;;
58681;SDS011;44460;40.162;18.294;2023-03-31T16:11:48;36.22;;;6.07;;
58681;SDS011;44460;40.162;18.294;2023-03-31T16:16:44;36.67;;;6.15;;
58681;SDS011;44460;40.162;18.294;2023-03-31T16:19:11;44.70;;;6.97;;
58681;SDS011;44460;40.162;18.294;2023-03-31T16:21:38;27.42;;;5.85;;
58681;SDS011;44460;40.162;18.294;2023-03-31T16:24:04;40.33;;;5.88;;
58681;SDS011;44460;40.162;18.294;2023-03-31T16:26:31;38.75;;;6.82;;
58681;SDS011;44460;40.162;18.294;2023-03-31T16:28:57;39.42;;;8.57;;
58681;SDS011;44460;40.162;18.294;2023-03-31T16:31:29;35.83;;;6.53;;
58681;SDS011;44460;40.162;18.294;2023-03-31T16:33:58;35.55;;;7.25;;
58681;SDS011;44460;40.162;18.294;2023-03-31T16:36:24;39.30;;;7.68;;
58681;SDS011;44460;40.162;18.294;2023-03-31T16:38:52;35.13;;;4.93;;
58681;SDS011;44460;40.162;18.294;2023-03-31T16:41:18;25.63;;;5.53;;
58681;SDS011;44460;40.162;18.294;2023-03-31T16:43:47;42.67;;;6.38;;
58681;SDS011;44460;40.162;18.294;2023-03-31T16:46:20;39.15;;;6.57;;
58681;SDS011;44460;40.162;18.294;2023-03-31T16:48:46;40.17;;;6.03;;
58681;SDS011;44460;40.162;18.294;2023-03-31T16:51:11;23.30;;;5.15;;
58681;SDS011;44460;40.162;18.294;2023-03-31T16:53:37;37.95;;;7.13;;
58681;SDS011;44460;40.162;18.294;2023-03-31T16:56:03;34.63;;;6.40;;
58681;SDS011;44460;40.162;18.294;2023-03-31T16:58:29;43.05;;;6.85;;
58681;SDS011;44460;40.162;18.294;2023-03-31T17:00:57;42.25;;;7.28;;
58681;SDS011;44460;40.162;18.294;2023-03-31T17:03:23;38.60;;;7.15;;
58681;SDS011;44460;40.162;18.294;2023-03-31T17:05:49;36.45;;;5.32;;
58681;SDS011;44460;40.162;18.294;2023-03-31T17:08:17;36.90;;;6.68;;
58681;SDS011;44460;40.162;18.294;2023-03-31T17:10:49;31.42;;;6.80;;
58681;SDS011;44460;40.162;18.294;2023-03-31T17:13:14;38.63;;;6.82;;
58681;SDS011;44460;40.162;18.294;2023-03-31T17:15:40;38.03;;;6.55;;
58681;SDS011;44460;40.162;18.294;2023-03-31T17:18:05;43.17;;;6.65;;
58681;SDS011;44460;40.162;18.294;2023-03-31T17:20:31;49.58;;;8.60;;
58681;SDS011;44460;40.162;18.294;2023-03-31T17:22:57;33.92;;;6.85;;
58681;SDS011;44460;40.162;18.294;2023-03-31T17:25:22;40.50;;;7.43;;
58681;SDS011;44460;40.162;18.294;2023-03-31T17:27:48;30.00;;;6.60;;
58681;SDS011;44460;40.162;18.294;2023-03-31T17:30:13;37.20;;;6.10;;
58681;SDS011;44460;40.162;18.294;2023-03-31T17:32:39;26.83;;;5.32;;
58681;SDS011;44460;40.162;18.294;2023-03-31T17:35:05;35.38;;;6.53;;
58681;SDS011;44460;40.162;18.294;2023-03-31T17:37:31;42.83;;;6.40;;
58681;SDS011;44460;40.162;18.294;2023-03-31T17:39:57;29.73;;;6.68;;
58681;SDS011;44460;40.162;18.294;2023-03-31T17:42:23;49.90;;;8.23;;
58681;SDS011;44460;40.162;18.294;2023-03-31T17:44:49;37.72;;;6.78;;
58681;SDS011;44460;40.162;18.294;2023-03-31T17:47:16;33.67;;;7.33;;
58681;SDS011;44460;40.162;18.294;2023-03-31T17:49:42;42.83;;;7.07;;
58681;SDS011;44460;40.162;18.294;2023-03-31T17:52:07;41.45;;;8.65;;